createdAt,value
2019-02-07T00:01:16.047Z,19.00
2019-02-07T00:03:44.304Z,19.00
2019-02-07T00:06:12.310Z,19.00
2019-02-07T00:08:40.184Z,19.00
2019-02-07T00:11:08.104Z,19.00
2019-02-07T00:13:36.398Z,19.00
2019-02-07T00:16:04.243Z,18.90
2019-02-07T00:18:32.186Z,18.90
2019-02-07T00:21:00.640Z,18.90
2019-02-07T00:23:28.506Z,18.90
2019-02-07T00:25:56.364Z,18.90
2019-02-07T00:28:24.239Z,18.90
2019-02-07T00:30:52.100Z,18.90
2019-02-07T00:33:19.993Z,18.90
2019-02-07T00:35:47.900Z,18.80
2019-02-07T00:38:15.739Z,18.80
2019-02-07T00:40:43.616Z,18.80
2019-02-07T00:43:11.468Z,18.80
2019-02-07T00:45:39.331Z,18.80
2019-02-07T00:48:07.172Z,18.80
2019-02-07T00:50:35.130Z,18.80
2019-02-07T00:53:03.358Z,18.80
2019-02-07T00:55:31.584Z,18.70
2019-02-07T00:57:59.514Z,18.70
2019-02-07T01:00:27.439Z,18.70
2019-02-07T01:02:55.287Z,18.70
2019-02-07T01:05:23.600Z,18.70
2019-02-07T01:07:51.459Z,18.70
2019-02-07T01:10:20.578Z,18.70
2019-02-07T01:12:48.447Z,18.70
2019-02-07T01:15:16.395Z,18.70
2019-02-07T01:17:44.235Z,18.70
2019-02-07T01:20:12.557Z,18.70
2019-02-07T01:22:40.871Z,18.70
2019-02-07T01:25:10.146Z,18.60
2019-02-07T01:27:37.999Z,18.60
2019-02-07T01:30:06.654Z,18.60
2019-02-07T01:32:34.776Z,18.60
2019-02-07T01:35:02.639Z,18.60
2019-02-07T01:37:30.551Z,18.60
2019-02-07T01:39:58.415Z,18.60
2019-02-07T01:42:26.547Z,18.60
2019-02-07T01:44:54.414Z,18.50
2019-02-07T01:47:22.327Z,18.50
2019-02-07T01:49:50.199Z,18.50
2019-02-07T01:52:18.048Z,18.50
2019-02-07T01:54:46.285Z,18.50
2019-02-07T01:57:14.134Z,18.50
2019-02-07T01:59:42.462Z,18.50
2019-02-07T02:02:10.389Z,18.50
2019-02-07T02:04:38.388Z,18.40
2019-02-07T02:07:06.248Z,18.40
2019-02-07T02:09:34.167Z,18.40
2019-02-07T02:12:02.012Z,18.40
2019-02-07T02:14:29.852Z,18.40
2019-02-07T02:16:58.072Z,18.40
2019-02-07T02:19:26.280Z,18.30
2019-02-07T02:21:54.141Z,18.30
2019-02-07T02:24:22.333Z,18.30
2019-02-07T02:26:50.270Z,18.30
2019-02-07T02:29:18.189Z,18.20
2019-02-07T02:31:46.047Z,18.20
2019-02-07T02:34:15.248Z,18.20
2019-02-07T02:36:43.093Z,18.20
2019-02-07T02:39:10.940Z,18.20
2019-02-07T02:41:38.793Z,18.20
2019-02-07T02:44:06.716Z,18.20
2019-02-07T02:46:34.556Z,18.10
2019-02-07T02:49:02.404Z,18.10
2019-02-07T02:51:30.246Z,18.10
2019-02-07T02:54:00.514Z,18.10
2019-02-07T02:56:28.600Z,18.10
2019-02-07T02:58:56.542Z,18.10
2019-02-07T03:01:42.409Z,18.10
2019-02-07T03:04:16.663Z,18.00
2019-02-07T03:07:02.573Z,18.00
2019-02-07T03:09:49.629Z,18.00
2019-02-07T03:12:38.018Z,18.00
2019-02-07T03:15:24.083Z,18.00
2019-02-07T03:18:20.339Z,18.00
2019-02-07T03:21:08.680Z,18.00
2019-02-07T03:23:54.632Z,18.00
2019-02-07T03:26:40.151Z,18.00
2019-02-07T03:29:30.228Z,18.00
2019-02-07T03:32:05.385Z,18.00
2019-02-07T03:34:58.227Z,18.00
2019-02-07T03:37:57.620Z,17.90
2019-02-07T03:41:03.161Z,17.90
2019-02-07T03:43:44.979Z,17.90
2019-02-07T03:46:23.700Z,17.90
2019-02-07T03:49:08.576Z,17.90
2019-02-07T03:51:54.663Z,17.90
2019-02-07T03:54:40.577Z,17.90
2019-02-07T03:57:24.080Z,17.90
2019-02-07T04:00:05.400Z,17.90
2019-02-07T04:03:04.951Z,17.90
2019-02-07T04:06:04.171Z,17.90
2019-02-07T04:08:49.931Z,17.90
2019-02-07T04:11:36.239Z,17.90
2019-02-07T04:14:29.495Z,17.80
2019-02-07T04:17:28.707Z,17.80
2019-02-07T04:20:11.247Z,17.80
2019-02-07T04:23:03.871Z,17.80
2019-02-07T04:25:41.703Z,17.90
2019-02-07T04:28:20.495Z,17.80
2019-02-07T04:31:18.055Z,17.80
2019-02-07T04:34:03.756Z,17.80
2019-02-07T04:36:48.298Z,17.80
2019-02-07T04:39:30.840Z,17.80
2019-02-07T04:42:16.707Z,17.80
2019-02-07T04:45:02.713Z,17.80
2019-02-07T04:47:52.747Z,17.80
2019-02-07T04:50:35.126Z,17.80
2019-02-07T04:53:28.159Z,17.80
2019-02-07T04:56:11.486Z,17.80
2019-02-07T04:59:10.490Z,17.80
2019-02-07T05:02:12.624Z,17.80
2019-02-07T05:04:58.496Z,17.80
2019-02-07T05:07:48.091Z,17.80
2019-02-07T05:10:34.439Z,17.80
2019-02-07T05:13:20.692Z,17.80
2019-02-07T05:16:20.200Z,17.70
2019-02-07T05:19:19.504Z,17.70
2019-02-07T05:22:05.665Z,17.70
2019-02-07T05:24:55.403Z,17.70
2019-02-07T05:27:45.159Z,17.70
2019-02-07T05:30:32.227Z,17.70
2019-02-07T05:33:34.568Z,17.70
2019-02-07T05:36:12.943Z,17.70
2019-02-07T05:39:06.106Z,17.70
2019-02-07T05:41:46.167Z,17.70
2019-02-07T05:44:30.931Z,17.60
2019-02-07T05:47:16.988Z,17.60
2019-02-07T05:50:02.542Z,17.70
2019-02-07T05:52:52.568Z,17.70
2019-02-07T05:55:37.656Z,17.70
2019-02-07T05:58:25.414Z,17.70
2019-02-07T06:01:18.971Z,17.70
2019-02-07T06:03:53.420Z,17.70
2019-02-07T06:06:45.232Z,17.80
2019-02-07T06:09:30.112Z,17.80
2019-02-07T06:12:16.335Z,17.90
2019-02-07T06:14:57.788Z,17.90
2019-02-07T06:17:59.971Z,18.00
2019-02-07T06:20:45.699Z,18.00
2019-02-07T06:23:32.706Z,18.10
2019-02-07T06:26:18.400Z,18.10
2019-02-07T06:29:05.441Z,18.20
2019-02-07T06:31:48.073Z,18.20
2019-02-07T06:34:33.902Z,18.30
2019-02-07T06:37:29.779Z,18.30
2019-02-07T06:40:16.961Z,18.40
2019-02-07T06:42:53.159Z,18.40
2019-02-07T06:45:33.279Z,18.40
2019-02-07T06:48:29.027Z,18.50
2019-02-07T06:51:25.314Z,18.50
2019-02-07T06:54:04.972Z,18.50
2019-02-07T06:57:00.623Z,18.60
2019-02-07T06:59:56.820Z,18.60
2019-02-07T07:02:42.551Z,18.60
2019-02-07T07:05:28.848Z,18.70
2019-02-07T07:08:19.291Z,18.70
2019-02-07T07:11:05.603Z,18.70
2019-02-07T07:13:52.576Z,18.70
2019-02-07T07:16:38.454Z,18.80
2019-02-07T07:19:33.906Z,18.90
2019-02-07T07:22:20.629Z,19.10
2019-02-07T07:25:10.858Z,19.20
2019-02-07T07:28:07.037Z,19.30
2019-02-07T07:30:56.786Z,19.40
2019-02-07T07:33:59.040Z,19.40
2019-02-07T07:36:54.831Z,19.40
2019-02-07T07:39:40.483Z,19.50
2019-02-07T07:42:26.207Z,19.50
2019-02-07T07:45:31.303Z,19.50
2019-02-07T07:48:24.669Z,19.50
2019-02-07T07:51:14.668Z,19.50
2019-02-07T07:54:02.285Z,19.50
2019-02-07T07:56:55.463Z,19.60
2019-02-07T07:59:41.360Z,19.60
2019-02-07T08:02:37.878Z,19.60
2019-02-07T08:05:25.186Z,19.70
2019-02-07T08:08:29.096Z,19.60
2019-02-07T08:11:20.949Z,19.50
2019-02-07T08:14:06.887Z,19.40
2019-02-07T08:16:52.976Z,19.50
2019-02-07T08:19:35.036Z,19.60
2019-02-07T08:22:37.870Z,19.60
2019-02-07T08:25:24.214Z,19.60
2019-02-07T08:28:07.267Z,19.60
2019-02-07T08:31:00.683Z,19.60
2019-02-07T08:33:47.684Z,19.60
2019-02-07T08:36:41.756Z,19.50
2019-02-07T08:39:27.179Z,19.50
2019-02-07T08:42:13.659Z,19.50
2019-02-07T08:45:16.101Z,19.50
2019-02-07T08:48:04.017Z,19.50
2019-02-07T08:51:06.387Z,19.50
2019-02-07T08:53:53.259Z,19.50
2019-02-07T08:56:39.359Z,19.50
2019-02-07T08:59:35.711Z,19.50
2019-02-07T09:02:12.005Z,19.50
2019-02-07T09:05:00.415Z,19.50
2019-02-07T09:07:50.272Z,19.50
2019-02-07T09:10:40.957Z,19.50
2019-02-07T09:13:26.867Z,19.50
2019-02-07T09:16:25.990Z,19.50
2019-02-07T09:19:08.634Z,19.50
2019-02-07T09:22:04.883Z,19.60
2019-02-07T09:24:43.180Z,19.50
2019-02-07T09:27:19.714Z,19.50
2019-02-07T09:30:09.539Z,19.50
2019-02-07T09:32:55.902Z,19.50
2019-02-07T09:35:48.860Z,19.60
2019-02-07T09:38:38.942Z,19.60
2019-02-07T09:41:25.622Z,19.60
2019-02-07T09:44:04.590Z,19.50
2019-02-07T09:46:50.266Z,19.50
2019-02-07T09:49:40.263Z,19.60
2019-02-07T09:52:33.040Z,19.60
2019-02-07T09:55:15.595Z,19.50
2019-02-07T09:58:11.958Z,19.60
2019-02-07T10:00:59.564Z,19.60
2019-02-07T10:03:49.651Z,19.60
2019-02-07T10:06:39.463Z,19.60
2019-02-07T10:09:36.910Z,19.70
2019-02-07T10:12:30.967Z,19.70
2019-02-07T10:15:26.941Z,19.70
2019-02-07T10:18:07.452Z,19.70
2019-02-07T10:21:13.191Z,19.70
2019-02-07T10:23:53.272Z,19.70
2019-02-07T10:26:40.331Z,19.70
2019-02-07T10:29:22.482Z,19.70
2019-02-07T10:31:59.866Z,19.70
2019-02-07T10:34:49.737Z,19.80
2019-02-07T10:37:37.484Z,19.70
2019-02-07T10:40:14.051Z,19.70
2019-02-07T10:43:13.358Z,19.80
2019-02-07T10:46:00.350Z,19.70
2019-02-07T10:48:55.167Z,19.80
2019-02-07T10:51:41.268Z,19.80
2019-02-07T10:54:33.612Z,19.80
2019-02-07T10:57:19.522Z,19.80
2019-02-07T11:00:05.488Z,19.80
2019-02-07T11:02:50.535Z,19.80
2019-02-07T11:05:36.171Z,19.80
2019-02-07T11:08:22.263Z,19.70
2019-02-07T11:11:18.735Z,19.80
2019-02-07T11:13:56.254Z,19.80
2019-02-07T11:16:42.668Z,19.90
2019-02-07T11:19:28.547Z,19.90
2019-02-07T11:22:09.107Z,19.80
2019-02-07T11:24:55.091Z,19.80
2019-02-07T11:27:45.203Z,19.80
2019-02-07T11:30:32.166Z,19.90
2019-02-07T11:33:17.975Z,19.80
2019-02-07T11:36:07.586Z,19.80
2019-02-07T11:39:06.799Z,19.80
2019-02-07T11:41:50.501Z,19.80
2019-02-07T11:44:52.880Z,19.80
2019-02-07T11:47:41.018Z,19.80
2019-02-07T11:50:27.343Z,19.80
2019-02-07T11:53:12.392Z,19.80
2019-02-07T11:55:58.335Z,19.80
2019-02-07T11:58:43.896Z,19.70
2019-02-07T12:01:28.041Z,19.80
2019-02-07T12:04:20.442Z,19.80
2019-02-07T12:07:12.479Z,19.80
2019-02-07T12:09:58.159Z,19.80
2019-02-07T12:12:45.131Z,19.80
2019-02-07T12:15:30.761Z,19.80
2019-02-07T12:18:30.036Z,19.80
2019-02-07T12:21:15.762Z,19.80
2019-02-07T12:24:11.915Z,19.90
2019-02-07T12:26:57.531Z,19.80
2019-02-07T12:29:49.978Z,19.80
2019-02-07T12:32:35.398Z,19.80
2019-02-07T12:35:22.815Z,19.80
2019-02-07T12:38:09.775Z,19.90
2019-02-07T12:41:09.278Z,19.90
2019-02-07T12:43:55.096Z,19.80
2019-02-07T12:46:47.703Z,19.80
2019-02-07T12:49:47.351Z,19.70
2019-02-07T12:52:43.358Z,19.70
2019-02-07T12:55:28.964Z,19.70
2019-02-07T12:58:09.538Z,19.70
2019-02-07T13:00:53.999Z,19.60
2019-02-07T13:03:50.039Z,19.60
2019-02-07T13:06:29.994Z,19.60
2019-02-07T13:09:19.763Z,19.60
2019-02-07T13:12:02.625Z,19.70
2019-02-07T13:14:41.748Z,19.60
2019-02-07T13:17:27.503Z,19.70
2019-02-07T13:20:11.953Z,19.60
2019-02-07T13:23:01.027Z,19.60
2019-02-07T13:25:48.326Z,19.60
2019-02-07T13:28:41.223Z,19.60
2019-02-07T13:31:17.556Z,19.60
2019-02-07T13:34:03.561Z,19.60
2019-02-07T13:36:45.168Z,19.60
2019-02-07T13:39:40.426Z,19.60
2019-02-07T13:42:16.716Z,19.60
2019-02-07T13:45:13.905Z,19.70
2019-02-07T13:47:53.705Z,19.70
2019-02-07T13:50:32.756Z,19.70
2019-02-07T13:53:22.567Z,19.60
2019-02-07T13:56:12.450Z,19.60
2019-02-07T13:58:59.427Z,19.60
2019-02-07T14:01:59.015Z,19.60
2019-02-07T14:04:51.847Z,19.70
2019-02-07T14:07:44.147Z,19.60
2019-02-07T14:10:31.126Z,19.60
2019-02-07T14:13:11.215Z,19.60
2019-02-07T14:15:54.394Z,19.50
2019-02-07T14:18:33.520Z,19.60
2019-02-07T14:21:27.071Z,19.50
2019-02-07T14:24:04.330Z,19.60
2019-02-07T14:27:06.670Z,19.60
2019-02-07T14:29:59.713Z,19.70
2019-02-07T14:32:45.691Z,19.70
2019-02-07T14:35:31.520Z,19.70
2019-02-07T14:38:24.503Z,19.70
2019-02-07T14:41:15.859Z,19.70
2019-02-07T14:44:11.961Z,19.70
2019-02-07T14:46:48.025Z,19.70
2019-02-07T14:49:16.146Z,19.70
2019-02-07T14:51:44.004Z,19.70
2019-02-07T14:54:12.453Z,19.70
2019-02-07T14:56:40.358Z,19.70
2019-02-07T14:59:08.215Z,19.70
2019-02-07T15:01:36.059Z,19.70
2019-02-07T15:04:03.972Z,19.70
2019-02-07T15:06:31.815Z,19.80
2019-02-07T15:08:59.782Z,19.80
2019-02-07T15:11:28.345Z,19.90
2019-02-07T15:13:56.499Z,19.90
2019-02-07T15:16:24.361Z,19.90
2019-02-07T15:18:52.247Z,19.90
2019-02-07T15:21:20.082Z,19.90
2019-02-07T15:23:47.976Z,19.90
2019-02-07T15:26:15.828Z,20.00
2019-02-07T15:28:43.943Z,19.90
2019-02-07T15:31:11.797Z,19.90
2019-02-07T15:33:39.668Z,20.00
2019-02-07T15:36:08.377Z,19.90
2019-02-07T15:38:36.291Z,19.90
2019-02-07T15:41:04.141Z,20.00
2019-02-07T15:43:32.064Z,20.00
2019-02-07T15:46:00.296Z,19.90
2019-02-07T15:48:28.210Z,20.00
2019-02-07T15:50:56.054Z,19.90
2019-02-07T15:53:23.987Z,20.00
2019-02-07T15:55:51.903Z,20.00
2019-02-07T15:58:25.309Z,20.00
2019-02-07T16:01:15.312Z,20.00
2019-02-07T16:03:48.043Z,20.10
2019-02-07T16:06:15.964Z,20.10
2019-02-07T16:08:43.884Z,20.10
2019-02-07T16:11:11.731Z,20.20
2019-02-07T16:13:39.579Z,20.20
2019-02-07T16:16:07.432Z,20.20
2019-02-07T16:18:35.751Z,20.20
2019-02-07T16:21:03.647Z,20.20
2019-02-07T16:23:31.503Z,20.20
2019-02-07T16:25:59.423Z,20.20
2019-02-07T16:28:27.638Z,20.20
2019-02-07T16:30:55.489Z,20.20
2019-02-07T16:33:23.880Z,20.20
2019-02-07T16:35:51.804Z,20.20
2019-02-07T16:38:19.727Z,20.20
2019-02-07T16:40:48.106Z,20.10
2019-02-07T16:43:15.946Z,20.20
2019-02-07T16:45:44.070Z,20.20
2019-02-07T16:48:11.913Z,20.10
2019-02-07T16:50:40.247Z,20.10
2019-02-07T16:53:08.086Z,20.10
2019-02-07T16:55:36.034Z,20.10
2019-02-07T16:58:04.082Z,20.10
2019-02-07T17:00:32.225Z,20.10
2019-02-07T17:03:00.528Z,20.10
2019-02-07T17:05:28.691Z,20.10
2019-02-07T17:07:56.530Z,20.10
2019-02-07T17:10:25.660Z,20.10
2019-02-07T17:12:53.503Z,20.10
2019-02-07T17:15:21.399Z,20.10
2019-02-07T17:17:49.244Z,20.10
2019-02-07T17:20:19.879Z,20.20
2019-02-07T17:22:48.151Z,20.20
2019-02-07T17:25:16.047Z,20.20
2019-02-07T17:27:43.887Z,20.20
2019-02-07T17:30:12.820Z,20.20
2019-02-07T17:32:40.810Z,20.20
2019-02-07T17:35:09.262Z,20.30
2019-02-07T17:37:37.109Z,20.30
2019-02-07T17:40:06.458Z,20.30
2019-02-07T17:42:34.377Z,20.30
2019-02-07T17:45:02.223Z,20.30
2019-02-07T17:47:30.072Z,20.30
2019-02-07T17:49:57.917Z,20.30
2019-02-07T17:52:25.936Z,20.40
2019-02-07T17:54:53.786Z,20.30
2019-02-07T17:57:21.630Z,20.20
2019-02-07T17:59:49.473Z,20.10
2019-02-07T18:02:17.395Z,20.10
2019-02-07T18:04:45.239Z,20.10
2019-02-07T18:07:13.162Z,20.00
2019-02-07T18:09:41.354Z,20.10
2019-02-07T18:12:09.199Z,20.00
2019-02-07T18:14:37.042Z,20.10
2019-02-07T18:17:04.899Z,20.10
2019-02-07T18:19:32.813Z,20.10
2019-02-07T18:22:00.658Z,20.10
2019-02-07T18:24:28.789Z,20.10
2019-02-07T18:26:57.012Z,20.10
2019-02-07T18:29:24.847Z,20.10
2019-02-07T18:31:52.709Z,20.10
2019-02-07T18:34:20.914Z,20.10
2019-02-07T18:36:48.765Z,20.10
2019-02-07T18:39:16.610Z,20.10
2019-02-07T18:41:44.501Z,20.10
2019-02-07T18:44:12.716Z,20.10
2019-02-07T18:46:40.615Z,20.10
2019-02-07T18:49:08.458Z,20.10
2019-02-07T18:51:45.289Z,20.10
2019-02-07T18:54:06.249Z,20.10
2019-02-07T18:56:34.135Z,20.10
2019-02-07T18:59:01.996Z,20.10
2019-02-07T19:01:30.187Z,20.10
2019-02-07T19:03:58.043Z,20.10
2019-02-07T19:06:26.299Z,20.10
2019-02-07T19:08:54.149Z,20.10
2019-02-07T19:11:22.042Z,20.10
2019-02-07T19:13:49.880Z,20.10
2019-02-07T19:16:18.498Z,20.10
2019-02-07T19:18:46.643Z,20.10
2019-02-07T19:21:14.551Z,20.10
2019-02-07T19:23:42.414Z,20.00
2019-02-07T19:26:13.196Z,20.00
2019-02-07T19:28:40.189Z,20.10
2019-02-07T19:31:08.029Z,20.10
2019-02-07T19:33:35.955Z,20.10
2019-02-07T19:36:04.180Z,20.10
2019-02-07T19:38:32.964Z,20.10
2019-02-07T19:41:01.363Z,20.10
2019-02-07T19:43:29.516Z,20.10
2019-02-07T19:45:57.376Z,20.10
2019-02-07T19:48:25.580Z,20.10
2019-02-07T19:50:53.427Z,20.10
2019-02-07T19:53:21.550Z,20.20
2019-02-07T19:55:49.470Z,20.20
2019-02-07T19:58:17.342Z,20.20
2019-02-07T20:00:45.181Z,20.10
2019-02-07T20:03:13.103Z,20.20
2019-02-07T20:05:40.952Z,20.20
2019-02-07T20:08:09.243Z,20.20
2019-02-07T20:10:39.245Z,20.20
2019-02-07T20:13:07.160Z,20.20
2019-02-07T20:15:36.134Z,20.20
2019-02-07T20:18:04.843Z,20.20
2019-02-07T20:20:33.633Z,20.20
2019-02-07T20:23:02.257Z,20.20
2019-02-07T20:25:31.300Z,20.20
2019-02-07T20:27:59.478Z,20.20
2019-02-07T20:30:37.587Z,20.20
2019-02-07T20:33:05.960Z,20.20
2019-02-07T20:35:33.928Z,20.20
2019-02-07T20:38:01.878Z,20.20
2019-02-07T20:40:29.718Z,20.20
2019-02-07T20:42:58.099Z,20.20
2019-02-07T20:45:26.267Z,20.10
2019-02-07T20:47:54.247Z,20.20
2019-02-07T20:50:22.855Z,20.20
2019-02-07T20:52:51.286Z,20.20
2019-02-07T20:55:19.502Z,20.20
2019-02-07T20:57:47.395Z,20.20
2019-02-07T21:00:17.246Z,20.20
2019-02-07T21:02:45.618Z,20.20
2019-02-07T21:05:13.740Z,20.20
2019-02-07T21:07:41.708Z,20.20
2019-02-07T21:10:10.617Z,20.20
2019-02-07T21:12:38.582Z,20.30
2019-02-07T21:15:08.220Z,20.30
2019-02-07T21:17:36.239Z,20.30
2019-02-07T21:20:05.542Z,20.30
2019-02-07T21:22:34.643Z,20.30
2019-02-07T21:25:02.797Z,20.30
2019-02-07T21:27:30.762Z,20.30
2019-02-07T21:29:58.978Z,20.30
2019-02-07T21:32:26.863Z,20.30
2019-02-07T21:34:55.932Z,20.30
2019-02-07T21:37:24.079Z,20.30
2019-02-07T21:39:51.918Z,20.30
2019-02-07T21:42:19.802Z,20.30
2019-02-07T21:44:47.639Z,20.30
2019-02-07T21:47:15.490Z,20.30
2019-02-07T21:49:43.326Z,20.30
2019-02-07T21:52:11.172Z,20.30
2019-02-07T21:54:39.295Z,20.30
2019-02-07T21:57:07.506Z,20.30
2019-02-07T21:59:36.050Z,20.20
2019-02-07T22:02:04.436Z,20.20
2019-02-07T22:04:32.311Z,20.20
2019-02-07T22:07:00.466Z,20.20
2019-02-07T22:09:28.730Z,20.20
2019-02-07T22:11:56.643Z,20.20
2019-02-07T22:14:24.495Z,20.20
2019-02-07T22:16:52.421Z,20.20
2019-02-07T22:19:20.263Z,20.20
2019-02-07T22:21:48.271Z,20.20
2019-02-07T22:24:16.106Z,20.20
2019-02-07T22:26:44.107Z,20.20
2019-02-07T22:29:11.971Z,20.10
2019-02-07T22:31:40.202Z,20.20
2019-02-07T22:34:08.085Z,20.10
2019-02-07T22:36:36.732Z,20.10
2019-02-07T22:39:06.779Z,20.10
2019-02-07T22:41:34.624Z,20.10
2019-02-07T22:44:02.495Z,20.10
2019-02-07T22:46:30.343Z,20.10
2019-02-07T22:48:58.419Z,20.10
2019-02-07T22:51:26.263Z,20.10
2019-02-07T22:53:54.136Z,20.10
2019-02-07T22:56:22.119Z,20.00
2019-02-07T22:58:49.991Z,20.00
2019-02-07T23:01:29.535Z,20.10
2019-02-07T23:03:58.443Z,20.00
2019-02-07T23:06:26.747Z,20.00
2019-02-07T23:08:54.614Z,20.00
2019-02-07T23:11:22.454Z,20.00
2019-02-07T23:13:50.775Z,20.00
2019-02-07T23:16:18.645Z,20.00
2019-02-07T23:18:47.064Z,20.00
2019-02-07T23:21:14.903Z,19.90
2019-02-07T23:23:42.775Z,20.00
2019-02-07T23:26:10.615Z,19.90
2019-02-07T23:28:38.490Z,19.80
2019-02-07T23:31:07.336Z,19.70
2019-02-07T23:33:35.745Z,19.70
2019-02-07T23:36:03.847Z,19.60
2019-02-07T23:38:31.760Z,19.60
2019-02-07T23:41:00.459Z,19.60
2019-02-07T23:43:28.399Z,19.50
2019-02-07T23:45:56.327Z,19.50
2019-02-07T23:48:24.201Z,19.50
2019-02-07T23:50:52.455Z,19.50
2019-02-07T23:53:21.852Z,19.50
2019-02-07T23:55:49.715Z,19.40
2019-02-07T23:58:17.560Z,19.40
